Time;durP1;ratioP1;P1;durP2;ratioP2;P2;SDS_P1;SDS_P2;PMS_P1;PMS_P2;Temp;Humidity;BMP_temperature;BMP_pressure;BME280_temperature;BME280_humidity;BME280_pressure;Samples;Min_cycle;Max_cycle;Signal;HPM_P1;HPM_P2
2022/01/14 00:03:36;;;;;;;15.35;6.07;;;;;;;;;;10367441;28;20482;-48
2022/01/14 00:08:37;;;;;;;11.75;6.57;;;;;;;;;;10367807;28;20038;-54
2022/01/14 00:18:37;;;;;;;14.07;5.67;;;;;;;;;;10368285;28;20026;-48
2022/01/14 00:23:40;;;;;;;10.23;5.88;;;;;;;;;;10367873;28;20113;-47
2022/01/14 00:34:01;;;;;;;10.40;6.97;;;;;;;;;;10367329;28;20022;-48
2022/01/14 00:39:01;;;;;;;11.40;6.90;;;;;;;;;;10364245;28;20072;-49
2022/01/14 00:44:06;;;;;;;10.03;6.70;;;;;;;;;;10364445;28;20060;-49
2022/01/14 00:49:07;;;;;;;12.40;6.38;;;;;;;;;;10366391;28;20800;-47
2022/01/14 00:54:08;;;;;;;12.25;6.85;;;;;;;;;;10367523;28;20687;-48
2022/01/14 00:59:15;;;;;;;16.13;7.70;;;;;;;;;;10367364;28;20382;-48
2022/01/14 01:04:21;;;;;;;12.23;7.10;;;;;;;;;;10367197;28;20033;-47
2022/01/14 01:09:24;;;;;;;11.02;6.25;;;;;;;;;;10366644;28;20063;-47
2022/01/14 01:14:38;;;;;;;13.65;7.00;;;;;;;;;;10369685;28;20074;-47
2022/01/14 01:19:40;;;;;;;10.38;6.00;;;;;;;;;;10374348;28;20102;-48
2022/01/14 01:24:40;;;;;;;10.70;6.82;;;;;;;;;;10373055;28;20025;-47
2022/01/14 01:34:41;;;;;;;10.95;6.45;;;;;;;;;;10374170;28;20533;-47
2022/01/14 01:39:41;;;;;;;13.00;6.40;;;;;;;;;;10372773;28;20026;-47
2022/01/14 01:44:43;;;;;;;15.57;6.97;;;;;;;;;;10369264;28;20028;-47
2022/01/14 01:49:44;;;;;;;10.00;6.40;;;;;;;;;;10369906;28;20463;-47
2022/01/14 01:54:44;;;;;;;10.03;6.63;;;;;;;;;;10372883;28;20025;-47
2022/01/14 01:59:44;;;;;;;10.63;6.97;;;;;;;;;;10372038;28;20435;-47
2022/01/14 02:04:45;;;;;;;11.55;7.40;;;;;;;;;;10371853;28;20435;-47
2022/01/14 02:09:45;;;;;;;9.63;6.73;;;;;;;;;;10371647;28;20403;-47
2022/01/14 02:25:28;;;;;;;10.52;7.45;;;;;;;;;;10370993;28;20065;-47
2022/01/14 02:30:30;;;;;;;10.57;6.97;;;;;;;;;;10371369;28;20037;-47
2022/01/14 02:35:30;;;;;;;11.52;6.82;;;;;;;;;;10371631;28;20076;-47
2022/01/14 02:40:31;;;;;;;13.23;7.68;;;;;;;;;;10370660;28;20033;-47
2022/01/14 02:45:34;;;;;;;11.55;7.82;;;;;;;;;;10370835;28;20050;-49
2022/01/14 02:56:16;;;;;;;11.95;7.55;;;;;;;;;;10365034;28;20160;-47
2022/01/14 03:01:20;;;;;;;10.85;6.80;;;;;;;;;;10370852;28;20033;-47
2022/01/14 03:06:21;;;;;;;11.77;7.32;;;;;;;;;;10370035;28;20195;-47
2022/01/14 03:11:44;;;;;;;10.53;6.97;;;;;;;;;;10369453;28;20168;-47
2022/01/14 03:16:47;;;;;;;13.55;7.63;;;;;;;;;;10368156;28;20452;-48
2022/01/14 03:21:51;;;;;;;10.95;7.18;;;;;;;;;;10369635;28;20033;-48
2022/01/14 03:26:52;;;;;;;11.85;7.60;;;;;;;;;;10368871;28;20516;-48
2022/01/14 03:31:53;;;;;;;11.38;7.57;;;;;;;;;;10368688;28;20470;-47
2022/01/14 03:36:53;;;;;;;10.18;7.10;;;;;;;;;;10367832;28;20032;-47
2022/01/14 03:41:53;;;;;;;11.07;7.17;;;;;;;;;;10369220;28;20053;-48
2022/01/14 03:46:54;;;;;;;11.07;6.97;;;;;;;;;;10368205;28;20435;-47
2022/01/14 03:51:54;;;;;;;13.25;7.70;;;;;;;;;;10368155;28;20440;-47
2022/01/14 03:56:54;;;;;;;9.73;7.27;;;;;;;;;;10365039;28;20030;-48
2022/01/14 04:01:55;;;;;;;10.17;7.00;;;;;;;;;;10364788;28;20448;-47
2022/01/14 04:06:55;;;;;;;10.50;7.10;;;;;;;;;;10368425;28;20033;-46
2022/01/14 04:12:00;;;;;;;9.37;6.97;;;;;;;;;;10368282;28;20442;-46
2022/01/14 04:17:01;;;;;;;11.82;7.18;;;;;;;;;;10367713;28;20116;-47
2022/01/14 04:22:01;;;;;;;10.07;7.10;;;;;;;;;;10368025;28;20516;-47
2022/01/14 04:27:01;;;;;;;11.82;7.68;;;;;;;;;;10367493;28;20451;-47
2022/01/14 04:32:02;;;;;;;10.00;7.22;;;;;;;;;;10367205;28;20450;-47
2022/01/14 04:37:02;;;;;;;10.63;6.72;;;;;;;;;;10367320;28;20469;-47
2022/01/14 04:42:03;;;;;;;9.37;6.93;;;;;;;;;;10367190;28;20080;-47
2022/01/14 04:47:15;;;;;;;12.10;7.20;;;;;;;;;;10368899;28;20608;-47
2022/01/14 04:52:16;;;;;;;12.68;6.97;;;;;;;;;;10375133;28;20038;-48
2022/01/14 04:57:16;;;;;;;11.80;8.03;;;;;;;;;;10374759;28;20366;-47
2022/01/14 05:02:17;;;;;;;9.65;6.60;;;;;;;;;;10370872;28;20490;-48
2022/01/14 05:07:24;;;;;;;9.32;6.68;;;;;;;;;;10370831;28;20068;-47
2022/01/14 05:12:25;;;;;;;11.90;6.70;;;;;;;;;;10374061;28;20026;-46
2022/01/14 05:17:26;;;;;;;11.30;7.10;;;;;;;;;;10373637;28;20041;-47
2022/01/14 05:22:27;;;;;;;11.05;7.22;;;;;;;;;;10373579;28;20026;-49
2022/01/14 05:27:27;;;;;;;9.30;6.90;;;;;;;;;;10373382;28;20107;-47
2022/01/14 05:32:28;;;;;;;12.32;6.40;;;;;;;;;;10373108;28;20029;-47
2022/01/14 05:37:28;;;;;;;9.25;6.80;;;;;;;;;;10372119;28;20053;-47
2022/01/14 05:42:33;;;;;;;9.83;7.23;;;;;;;;;;10373255;28;20026;-48
2022/01/14 05:47:34;;;;;;;9.05;6.68;;;;;;;;;;10373151;28;20450;-47
2022/01/14 05:52:35;;;;;;;11.05;6.47;;;;;;;;;;10372782;28;20458;-47
2022/01/14 05:57:37;;;;;;;9.30;7.20;;;;;;;;;;10372702;28;20057;-47
2022/01/14 06:02:37;;;;;;;9.48;6.35;;;;;;;;;;10371713;28;20456;-47
2022/01/14 06:07:38;;;;;;;11.43;7.43;;;;;;;;;;10368238;28;20044;-47
2022/01/14 06:12:38;;;;;;;11.53;7.90;;;;;;;;;;10367769;28;20108;-47
2022/01/14 06:17:38;;;;;;;10.95;7.32;;;;;;;;;;10370878;28;21035;-47
2022/01/14 06:22:39;;;;;;;11.88;7.72;;;;;;;;;;10371532;28;20022;-47
2022/01/14 06:27:39;;;;;;;10.75;8.00;;;;;;;;;;10370996;28;20213;-47
2022/01/14 06:32:42;;;;;;;12.73;8.47;;;;;;;;;;10370592;28;20058;-47
2022/01/14 06:37:43;;;;;;;11.38;7.90;;;;;;;;;;10370681;28;20482;-47
2022/01/14 06:42:43;;;;;;;11.73;8.27;;;;;;;;;;10370135;28;20080;-47
2022/01/14 06:47:44;;;;;;;11.93;8.15;;;;;;;;;;10370000;28;20526;-47
2022/01/14 06:52:44;;;;;;;14.63;8.50;;;;;;;;;;10369655;28;20079;-47
2022/01/14 06:57:45;;;;;;;14.15;8.35;;;;;;;;;;10369555;28;20432;-47
2022/01/14 07:02:45;;;;;;;12.25;7.90;;;;;;;;;;10369107;28;20018;-48
2022/01/14 07:07:46;;;;;;;13.40;8.27;;;;;;;;;;10369071;28;20500;-54
2022/01/14 07:12:48;;;;;;;14.25;8.35;;;;;;;;;;10346793;28;20026;-48
2022/01/14 07:17:48;;;;;;;21.95;9.40;;;;;;;;;;10368744;28;20050;-52
2022/01/14 07:22:48;;;;;;;20.83;11.02;;;;;;;;;;10365838;28;20022;-56
2022/01/14 07:27:49;;;;;;;19.60;11.35;;;;;;;;;;10368162;28;20034;-49
2022/01/14 07:32:50;;;;;;;24.42;11.48;;;;;;;;;;10367870;28;20105;-55
2022/01/14 07:37:50;;;;;;;30.92;12.30;;;;;;;;;;10368306;28;20449;-55
2022/01/14 07:42:51;;;;;;;27.70;11.27;;;;;;;;;;10367624;28;20446;-52
2022/01/14 07:47:51;;;;;;;27.55;11.82;;;;;;;;;;10366962;28;20451;-60
2022/01/14 07:52:51;;;;;;;20.47;10.97;;;;;;;;;;10367911;28;20025;-56
2022/01/14 07:57:52;;;;;;;22.37;11.33;;;;;;;;;;10368467;28;21065;-53
2022/01/14 08:02:52;;;;;;;22.93;12.37;;;;;;;;;;10367348;28;20374;-49
2022/01/14 08:07:56;;;;;;;24.02;11.32;;;;;;;;;;10367369;28;20554;-55
2022/01/14 08:12:56;;;;;;;21.10;12.05;;;;;;;;;;10367430;28;20018;-50
2022/01/14 08:17:59;;;;;;;30.70;12.73;;;;;;;;;;10367493;28;20417;-50
2022/01/14 08:23:00;;;;;;;24.77;13.98;;;;;;;;;;10367824;28;21116;-51
2022/01/14 08:28:00;;;;;;;23.83;13.23;;;;;;;;;;10375976;28;20099;-50
2022/01/14 08:33:00;;;;;;;22.33;12.50;;;;;;;;;;10371858;28;20033;-50
2022/01/14 08:38:01;;;;;;;25.17;13.53;;;;;;;;;;10374936;28;20462;-49
2022/01/14 08:43:02;;;;;;;20.33;12.93;;;;;;;;;;10374343;28;20470;-49
2022/01/14 08:48:02;;;;;;;22.92;13.68;;;;;;;;;;10374395;28;20033;-51
2022/01/14 08:53:05;;;;;;;24.42;13.82;;;;;;;;;;10374383;28;20026;-52
2022/01/14 08:58:06;;;;;;;23.10;14.52;;;;;;;;;;10373716;28;20393;-52
2022/01/14 09:03:06;;;;;;;24.80;12.88;;;;;;;;;;10373770;28;20026;-52
2022/01/14 09:08:07;;;;;;;18.38;13.32;;;;;;;;;;10373808;28;20022;-48
2022/01/14 09:13:07;;;;;;;19.87;13.27;;;;;;;;;;10373373;28;20513;-48
2022/01/14 09:18:08;;;;;;;25.33;13.17;;;;;;;;;;10373466;28;20454;-52
2022/01/14 09:23:15;;;;;;;21.87;13.50;;;;;;;;;;10373405;28;20527;-51
2022/01/14 09:28:15;;;;;;;19.65;12.75;;;;;;;;;;10373370;28;20540;-54
2022/01/14 09:33:17;;;;;;;20.33;12.68;;;;;;;;;;10365598;28;20120;-48
2022/01/14 09:38:18;;;;;;;19.65;12.10;;;;;;;;;;10373335;28;20032;-48
2022/01/14 09:43:19;;;;;;;27.70;12.57;;;;;;;;;;10372881;28;20040;-53
2022/01/14 09:48:20;;;;;;;18.90;11.80;;;;;;;;;;10372692;28;20095;-57
2022/01/14 09:53:20;;;;;;;18.95;12.23;;;;;;;;;;10371860;28;20382;-52
2022/01/14 09:58:26;;;;;;;22.63;12.27;;;;;;;;;;10371936;28;20022;-50
2022/01/14 10:03:26;;;;;;;20.00;12.35;;;;;;;;;;10371702;28;20467;-51
2022/01/14 10:08:28;;;;;;;22.33;13.80;;;;;;;;;;10371378;28;20029;-58
2022/01/14 10:13:33;;;;;;;18.90;12.63;;;;;;;;;;10370967;28;20448;-49
2022/01/14 10:18:35;;;;;;;23.52;12.07;;;;;;;;;;10369725;28;20034;-58
2022/01/14 10:23:43;;;;;;;20.88;12.40;;;;;;;;;;10370567;28;20072;-50
2022/01/14 10:28:57;;;;;;;20.77;12.35;;;;;;;;;;10371048;28;20030;-47
2022/01/14 10:34:14;;;;;;;17.38;12.27;;;;;;;;;;10364129;28;20038;-52
2022/01/14 10:39:32;;;;;;;22.30;13.05;;;;;;;;;;10371162;28;20034;-48
2022/01/14 10:44:38;;;;;;;17.87;12.00;;;;;;;;;;10370253;28;20428;-47
2022/01/14 10:49:39;;;;;;;16.73;11.30;;;;;;;;;;10370761;28;20073;-49
2022/01/14 10:54:49;;;;;;;18.83;11.55;;;;;;;;;;10370080;28;20022;-52
2022/01/14 10:59:52;;;;;;;21.55;12.50;;;;;;;;;;10370632;28;20084;-48
2022/01/14 11:05:08;;;;;;;16.17;10.70;;;;;;;;;;10370050;28;20050;-48
2022/01/14 11:10:15;;;;;;;17.95;12.13;;;;;;;;;;10369511;28;20061;-48
2022/01/14 11:15:16;;;;;;;20.05;11.68;;;;;;;;;;10369161;28;20046;-51
2022/01/14 11:20:24;;;;;;;18.83;12.25;;;;;;;;;;10369510;28;20042;-47
2022/01/14 11:25:24;;;;;;;16.80;11.60;;;;;;;;;;10369449;28;20032;-54
2022/01/14 11:30:37;;;;;;;18.13;11.30;;;;;;;;;;10367532;28;20377;-48
2022/01/14 11:35:38;;;;;;;15.68;10.43;;;;;;;;;;10365487;28;20046;-48
2022/01/14 11:40:49;;;;;;;17.13;11.05;;;;;;;;;;10365452;28;20489;-48
2022/01/14 11:45:49;;;;;;;19.45;11.43;;;;;;;;;;10368846;28;20072;-48
2022/01/14 11:50:50;;;;;;;15.83;10.33;;;;;;;;;;10368817;28;20456;-49
2022/01/14 11:55:50;;;;;;;18.58;11.30;;;;;;;;;;10367932;28;20060;-48
2022/01/14 12:00:50;;;;;;;16.13;11.33;;;;;;;;;;10367575;28;20049;-48
2022/01/14 12:05:54;;;;;;;17.05;11.18;;;;;;;;;;10367736;28;20478;-47
2022/01/14 12:10:58;;;;;;;17.40;11.52;;;;;;;;;;10367626;28;20284;-50
2022/01/14 12:16:03;;;;;;;16.42;11.15;;;;;;;;;;10367855;28;20103;-48
2022/01/14 12:21:03;;;;;;;19.52;11.30;;;;;;;;;;10368099;28;20038;-55
2022/01/14 12:26:18;;;;;;;16.40;10.20;;;;;;;;;;10367371;28;20037;-52
2022/01/14 12:31:19;;;;;;;17.02;10.10;;;;;;;;;;10367164;28;20985;-52
2022/01/14 12:36:21;;;;;;;16.47;11.07;;;;;;;;;;10366872;28;20026;-48
2022/01/14 12:41:23;;;;;;;15.65;10.45;;;;;;;;;;10363958;28;20440;-56
2022/01/14 12:46:40;;;;;;;16.08;10.45;;;;;;;;;;10367110;28;20053;-47
2022/01/14 12:51:41;;;;;;;15.43;10.20;;;;;;;;;;10364218;28;20054;-52
2022/01/14 12:56:41;;;;;;;18.40;10.80;;;;;;;;;;10366930;28;20109;-58
2022/01/14 13:01:47;;;;;;;14.43;10.00;;;;;;;;;;10366681;28;20113;-48
2022/01/14 13:06:51;;;;;;;15.10;9.85;;;;;;;;;;10366862;28;20692;-47
2022/01/14 13:12:02;;;;;;;14.35;10.00;;;;;;;;;;10373449;28;20056;-47
2022/01/14 13:17:08;;;;;;;17.05;10.45;;;;;;;;;;10373583;28;20505;-48
2022/01/14 13:22:12;;;;;;;18.73;9.75;;;;;;;;;;10373593;28;20061;-49
2022/01/14 13:27:19;;;;;;;15.55;9.75;;;;;;;;;;10371512;28;20031;-51
2022/01/14 13:32:23;;;;;;;15.80;10.40;;;;;;;;;;10370797;28;20030;-49
2022/01/14 13:37:26;;;;;;;18.80;9.90;;;;;;;;;;10370591;28;20056;-48
2022/01/14 13:42:26;;;;;;;13.85;9.43;;;;;;;;;;10370041;28;20029;-49
2022/01/14 13:47:33;;;;;;;15.02;10.05;;;;;;;;;;10371067;28;20032;-50
2022/01/14 13:52:33;;;;;;;14.82;9.70;;;;;;;;;;10369181;28;20033;-56
2022/01/14 13:57:34;;;;;;;16.30;9.05;;;;;;;;;;10371879;28;20535;-55
2022/01/14 14:02:35;;;;;;;17.85;9.45;;;;;;;;;;10367438;28;20026;-47
2022/01/14 14:07:47;;;;;;;18.55;10.05;;;;;;;;;;10371495;28;20064;-48
2022/01/14 14:12:49;;;;;;;17.23;9.15;;;;;;;;;;10372082;28;20029;-49
2022/01/14 14:18:06;;;;;;;18.58;9.25;;;;;;;;;;10371097;28;20057;-52
2022/01/14 14:23:17;;;;;;;17.77;9.32;;;;;;;;;;10370692;28;20355;-57
2022/01/14 14:28:26;;;;;;;23.35;10.52;;;;;;;;;;10370787;28;20034;-47
2022/01/14 14:33:26;;;;;;;20.08;9.98;;;;;;;;;;10370866;28;20030;-50
2022/01/14 14:38:29;;;;;;;17.83;9.27;;;;;;;;;;10370842;28;20477;-49
2022/01/14 14:43:29;;;;;;;21.67;10.13;;;;;;;;;;10370363;28;21046;-48
2022/01/14 14:48:30;;;;;;;16.08;8.98;;;;;;;;;;10370768;28;20112;-49
2022/01/14 14:53:30;;;;;;;22.45;10.18;;;;;;;;;;10370445;28;20017;-48
2022/01/14 14:58:31;;;;;;;15.73;9.27;;;;;;;;;;10367408;28;20033;-47
2022/01/14 15:03:31;;;;;;;20.13;9.33;;;;;;;;;;10366745;28;20053;-47
2022/01/14 15:08:32;;;;;;;89.67;10.80;;;;;;;;;;10369778;28;20815;-50
2022/01/14 15:13:32;;;;;;;40.67;10.00;;;;;;;;;;10369511;28;20512;-51
2022/01/14 15:18:32;;;;;;;42.33;10.37;;;;;;;;;;10369401;28;20022;-47
2022/01/14 15:23:33;;;;;;;28.47;9.47;;;;;;;;;;10370108;28;20836;-54
2022/01/14 15:28:33;;;;;;;28.90;8.95;;;;;;;;;;10368815;28;20464;-55
2022/01/14 15:33:34;;;;;;;31.63;9.00;;;;;;;;;;10367656;28;20585;-48
2022/01/14 15:38:34;;;;;;;29.48;9.10;;;;;;;;;;10368530;28;20029;-52
2022/01/14 15:43:35;;;;;;;30.10;9.27;;;;;;;;;;10368542;28;20030;-58
2022/01/14 15:48:36;;;;;;;15.90;8.10;;;;;;;;;;10368590;28;20029;-50
2022/01/14 15:53:36;;;;;;;26.98;8.50;;;;;;;;;;10368410;28;20421;-53
2022/01/14 15:58:36;;;;;;;20.90;8.10;;;;;;;;;;10368129;28;20030;-46
2022/01/14 16:03:37;;;;;;;16.47;7.83;;;;;;;;;;10364771;28;20440;-52
2022/01/14 16:08:38;;;;;;;27.85;8.15;;;;;;;;;;10368178;28;20026;-64
2022/01/14 16:13:41;;;;;;;20.13;8.20;;;;;;;;;;10364454;28;20037;-51
2022/01/14 16:18:41;;;;;;;19.77;8.07;;;;;;;;;;10368274;28;20046;-46
2022/01/14 16:23:41;;;;;;;19.77;8.60;;;;;;;;;;10367628;28;20018;-52
2022/01/14 16:28:42;;;;;;;15.32;8.13;;;;;;;;;;10368170;28;20479;-45
2022/01/14 16:33:42;;;;;;;25.30;8.65;;;;;;;;;;10367930;28;20101;-45
2022/01/14 16:38:43;;;;;;;15.00;7.30;;;;;;;;;;10367578;28;20026;-51
2022/01/14 16:43:43;;;;;;;19.50;7.53;;;;;;;;;;10370197;28;20529;-46
2022/01/14 16:48:44;;;;;;;15.05;7.55;;;;;;;;;;10375023;28;21002;-45
2022/01/14 16:53:44;;;;;;;14.05;7.53;;;;;;;;;;10373285;28;20029;-63
2022/01/14 16:58:47;;;;;;;14.83;7.07;;;;;;;;;;10373691;28;20134;-46
2022/01/14 17:03:47;;;;;;;14.88;7.50;;;;;;;;;;10374559;28;20451;-48
2022/01/14 17:08:48;;;;;;;17.20;7.80;;;;;;;;;;10374902;28;20030;-48
2022/01/14 17:13:48;;;;;;;18.03;8.53;;;;;;;;;;10371259;28;20524;-54
2022/01/14 17:18:49;;;;;;;18.63;7.32;;;;;;;;;;10374505;28;20513;-49
2022/01/14 17:23:49;;;;;;;13.10;7.63;;;;;;;;;;10371201;28;20037;-47
2022/01/14 17:28:52;;;;;;;15.45;7.70;;;;;;;;;;10373448;28;20460;-45
2022/01/14 17:33:53;;;;;;;11.77;7.70;;;;;;;;;;10373322;28;20030;-49
2022/01/14 17:38:54;;;;;;;17.63;7.07;;;;;;;;;;10372692;28;20022;-48
2022/01/14 17:43:57;;;;;;;15.50;7.28;;;;;;;;;;10373682;28;20033;-46
2022/01/14 17:48:57;;;;;;;16.13;7.57;;;;;;;;;;10372762;28;20048;-46
2022/01/14 17:53:57;;;;;;;16.03;7.43;;;;;;;;;;10371677;28;20033;-47
2022/01/14 17:58:58;;;;;;;19.73;7.10;;;;;;;;;;10371921;28;20517;-64
2022/01/14 18:03:59;;;;;;;16.13;6.38;;;;;;;;;;10372363;28;20033;-48
2022/01/14 18:09:01;;;;;;;12.10;8.10;;;;;;;;;;10372671;28;20476;-46
2022/01/14 18:14:06;;;;;;;14.98;8.20;;;;;;;;;;10383451;22;20200;-52
2022/01/14 18:19:06;;;;;;;14.95;8.23;;;;;;;;;;10370962;28;20097;-47
2022/01/14 18:24:07;;;;;;;17.83;9.47;;;;;;;;;;10368406;28;20549;-51
2022/01/14 18:29:08;;;;;;;21.00;9.67;;;;;;;;;;10370850;28;20460;-48
2022/01/14 18:34:09;;;;;;;19.20;9.40;;;;;;;;;;10371454;28;20464;-54
2022/01/14 18:39:11;;;;;;;20.50;10.73;;;;;;;;;;10371067;28;20097;-50
2022/01/14 18:44:14;;;;;;;17.33;9.95;;;;;;;;;;10371203;28;20030;-51
2022/01/14 18:49:15;;;;;;;20.52;10.23;;;;;;;;;;10370411;28;20436;-49
2022/01/14 18:54:17;;;;;;;16.20;9.15;;;;;;;;;;10370222;28;20080;-50
2022/01/14 18:59:17;;;;;;;17.55;10.00;;;;;;;;;;10370566;28;20064;-47
2022/01/14 19:04:18;;;;;;;20.02;10.48;;;;;;;;;;10369844;28;20512;-48
2022/01/14 19:09:19;;;;;;;19.57;11.40;;;;;;;;;;10369650;28;20036;-47
2022/01/14 19:14:19;;;;;;;26.50;12.07;;;;;;;;;;10369117;28;20515;-49
2022/01/14 19:19:20;;;;;;;24.10;11.65;;;;;;;;;;10368776;28;20068;-51
2022/01/14 19:24:20;;;;;;;37.17;13.85;;;;;;;;;;10366068;28;20088;-49
2022/01/14 19:29:21;;;;;;;33.63;12.63;;;;;;;;;;10365989;28;20033;-50
2022/01/14 19:34:21;;;;;;;28.35;12.63;;;;;;;;;;10368604;28;20585;-51
2022/01/14 19:39:22;;;;;;;29.87;13.13;;;;;;;;;;10368817;28;20413;-53
2022/01/14 19:44:22;;;;;;;30.98;12.88;;;;;;;;;;10367041;28;20476;-46
2022/01/14 19:49:23;;;;;;;24.83;12.68;;;;;;;;;;10367433;28;20265;-47
2022/01/14 19:54:24;;;;;;;30.48;12.77;;;;;;;;;;10367681;28;20038;-49
2022/01/14 19:59:29;;;;;;;32.65;14.48;;;;;;;;;;10367573;28;20160;-47
2022/01/14 20:04:29;;;;;;;24.00;13.32;;;;;;;;;;10367478;28;20470;-46
2022/01/14 20:09:30;;;;;;;28.23;13.80;;;;;;;;;;10367213;28;20033;-49
2022/01/14 20:14:31;;;;;;;32.47;14.83;;;;;;;;;;10367269;28;20550;-46
2022/01/14 20:19:31;;;;;;;28.83;14.07;;;;;;;;;;10372007;28;20030;-47
2022/01/14 20:24:32;;;;;;;29.88;14.13;;;;;;;;;;10375705;28;20376;-46
2022/01/14 20:29:33;;;;;;;30.88;14.98;;;;;;;;;;10372113;28;20099;-51
2022/01/14 20:34:33;;;;;;;27.00;13.83;;;;;;;;;;10371879;28;20077;-48
2022/01/14 20:39:34;;;;;;;35.50;15.68;;;;;;;;;;10374622;28;20517;-51
2022/01/14 20:44:38;;;;;;;35.43;14.87;;;;;;;;;;10374417;28;20038;-48
2022/01/14 20:49:38;;;;;;;34.95;15.63;;;;;;;;;;10375186;28;20478;-48
2022/01/14 20:54:38;;;;;;;33.83;15.77;;;;;;;;;;10374896;28;20025;-49
2022/01/14 20:59:39;;;;;;;33.53;15.70;;;;;;;;;;10374609;28;20872;-51
2022/01/14 21:04:39;;;;;;;26.80;14.73;;;;;;;;;;10372908;28;20053;-52
2022/01/14 21:09:39;;;;;;;28.97;15.40;;;;;;;;;;10373660;28;20068;-50
2022/01/14 21:14:40;;;;;;;34.17;17.80;;;;;;;;;;10373585;28;20459;-50
2022/01/14 21:19:40;;;;;;;28.63;17.00;;;;;;;;;;10374020;28;20137;-46
2022/01/14 21:24:42;;;;;;;27.57;15.10;;;;;;;;;;10373816;28;20459;-50
2022/01/14 21:29:42;;;;;;;33.63;16.52;;;;;;;;;;10372403;28;20471;-59
2022/01/14 21:34:43;;;;;;;29.70;16.27;;;;;;;;;;10369408;28;20026;-61
2022/01/14 21:39:44;;;;;;;30.77;15.17;;;;;;;;;;10369312;28;20513;-49
2022/01/14 21:44:45;;;;;;;29.40;16.05;;;;;;;;;;10371661;28;20064;-48
2022/01/14 21:49:46;;;;;;;38.50;17.40;;;;;;;;;;10372741;28;20066;-56
2022/01/14 21:54:47;;;;;;;33.42;17.15;;;;;;;;;;10373003;28;20076;-61
2022/01/14 21:59:47;;;;;;;31.73;16.50;;;;;;;;;;10372435;28;20465;-58
2022/01/14 22:04:48;;;;;;;36.03;17.07;;;;;;;;;;10372129;28;20076;-50
2022/01/14 22:09:48;;;;;;;34.97;18.13;;;;;;;;;;10371395;28;20799;-47
2022/01/14 22:15:03;;;;;;;33.08;18.33;;;;;;;;;;10371338;28;20417;-50
2022/01/14 22:20:04;;;;;;;33.08;19.58;;;;;;;;;;10371758;28;20344;-52
2022/01/14 22:25:04;;;;;;;29.92;19.15;;;;;;;;;;10371711;28;20631;-51
2022/01/14 22:30:07;;;;;;;32.67;18.95;;;;;;;;;;10370686;28;20071;-47
2022/01/14 22:35:08;;;;;;;33.47;19.27;;;;;;;;;;10371048;28;20056;-47
2022/01/14 22:40:09;;;;;;;40.78;19.52;;;;;;;;;;10366243;28;20105;-51
2022/01/14 22:45:10;;;;;;;34.25;17.60;;;;;;;;;;10367117;28;20474;-46
2022/01/14 22:50:11;;;;;;;36.05;18.00;;;;;;;;;;10370177;28;20026;-50
2022/01/14 22:55:11;;;;;;;29.80;18.58;;;;;;;;;;10369830;28;20130;-46
2022/01/14 23:00:17;;;;;;;34.50;18.70;;;;;;;;;;10370003;28;20443;-48
2022/01/14 23:05:18;;;;;;;27.40;17.55;;;;;;;;;;10369653;28;20800;-45
2022/01/14 23:10:21;;;;;;;39.38;18.67;;;;;;;;;;10369765;28;20030;-48
2022/01/14 23:15:22;;;;;;;39.70;18.77;;;;;;;;;;10369370;28;20053;-50
2022/01/14 23:20:22;;;;;;;42.35;19.45;;;;;;;;;;10369556;28;20470;-46
2022/01/14 23:25:23;;;;;;;42.90;21.02;;;;;;;;;;10369846;28;20034;-49
2022/01/14 23:30:23;;;;;;;39.35;18.55;;;;;;;;;;10368760;28;20034;-46
2022/01/14 23:35:24;;;;;;;36.75;19.52;;;;;;;;;;10368579;28;20081;-48
2022/01/14 23:40:25;;;;;;;38.22;19.13;;;;;;;;;;10367603;28;20394;-46
2022/01/14 23:45:38;;;;;;;35.45;19.70;;;;;;;;;;10363261;28;20054;-46
2022/01/14 23:50:38;;;;;;;36.28;19.52;;;;;;;;;;10368948;28;20101;-46
2022/01/14 23:55:39;;;;;;;31.33;19.25;;;;;;;;;;10367355;28;20456;-46
